sensor_id;sensor_type;location;lat;lon;timestamp;pressure;altitude;pressure_sealevel;temperature;humidity
42335;BME280;27986;42.700;24.178;2022-09-27T00:00:40;93045.03;;;15.39;100.00
42335;BME280;27986;42.700;24.178;2022-09-27T00:03:08;93045.69;;;15.30;100.00
42335;BME280;27986;42.700;24.178;2022-09-27T00:05:33;93040.81;;;15.23;100.00
42335;BME280;27986;42.700;24.178;2022-09-27T00:07:59;93038.94;;;15.43;100.00
42335;BME280;27986;42.700;24.178;2022-09-27T00:10:24;93039.09;;;15.20;100.00
42335;BME280;27986;42.700;24.178;2022-09-27T00:12:50;93043.22;;;15.27;100.00
42335;BME280;27986;42.700;24.178;2022-09-27T00:15:17;93015.34;;;15.08;100.00
42335;BME280;27986;42.700;24.178;2022-09-27T00:17:43;93033.88;;;15.09;100.00
42335;BME280;27986;42.700;24.178;2022-09-27T00:20:08;93031.69;;;15.00;100.00
42335;BME280;27986;42.700;24.178;2022-09-27T00:22:34;93019.78;;;14.93;100.00
42335;BME280;27986;42.700;24.178;2022-09-27T00:25:00;93038.75;;;15.16;100.00
42335;BME280;27986;42.700;24.178;2022-09-27T00:27:26;93007.38;;;15.14;100.00
42335;BME280;27986;42.700;24.178;2022-09-27T00:29:52;93024.63;;;15.33;100.00
42335;BME280;27986;42.700;24.178;2022-09-27T00:32:17;93015.47;;;15.42;100.00
42335;BME280;27986;42.700;24.178;2022-09-27T00:34:43;93017.13;;;15.45;100.00
42335;BME280;27986;42.700;24.178;2022-09-27T00:37:09;93006.78;;;15.40;100.00
42335;BME280;27986;42.700;24.178;2022-09-27T00:39:35;92983.81;;;15.21;100.00
42335;BME280;27986;42.700;24.178;2022-09-27T00:42:03;92974.44;;;15.11;100.00
42335;BME280;27986;42.700;24.178;2022-09-27T00:49:32;93010.22;;;15.39;100.00
42335;BME280;27986;42.700;24.178;2022-09-27T00:52:20;92988.00;;;15.20;100.00
42335;BME280;27986;42.700;24.178;2022-09-27T00:54:52;92992.06;;;15.34;100.00
42335;BME280;27986;42.700;24.178;2022-09-27T00:57:20;92971.25;;;15.07;100.00
42335;BME280;27986;42.700;24.178;2022-09-27T00:59:53;93001.28;;;15.17;100.00
42335;BME280;27986;42.700;24.178;2022-09-27T01:02:22;92953.00;;;14.92;100.00
42335;BME280;27986;42.700;24.178;2022-09-27T01:04:48;92963.31;;;14.80;100.00
42335;BME280;27986;42.700;24.178;2022-09-27T01:07:14;92997.56;;;15.07;100.00
42335;BME280;27986;42.700;24.178;2022-09-27T01:09:39;92992.47;;;15.06;100.00
42335;BME280;27986;42.700;24.178;2022-09-27T01:33:46;93004.16;;;15.10;100.00
42335;BME280;27986;42.700;24.178;2022-09-27T01:39:41;93003.13;;;14.98;100.00
42335;BME280;27986;42.700;24.178;2022-09-27T01:42:24;93002.13;;;15.03;100.00
42335;BME280;27986;42.700;24.178;2022-09-27T01:45:05;93000.50;;;15.17;100.00
42335;BME280;27986;42.700;24.178;2022-09-27T01:47:41;93008.63;;;15.20;100.00
42335;BME280;27986;42.700;24.178;2022-09-27T01:50:18;92996.75;;;15.14;100.00
42335;BME280;27986;42.700;24.178;2022-09-27T01:52:53;92996.75;;;14.89;100.00
42335;BME280;27986;42.700;24.178;2022-09-27T01:55:22;92992.09;;;14.69;100.00
42335;BME280;27986;42.700;24.178;2022-09-27T01:57:56;92992.88;;;14.70;100.00
42335;BME280;27986;42.700;24.178;2022-09-27T02:00:22;92976.78;;;14.72;100.00
42335;BME280;27986;42.700;24.178;2022-09-27T02:02:56;92978.53;;;14.60;100.00
42335;BME280;27986;42.700;24.178;2022-09-27T02:05:28;92959.47;;;14.53;100.00
42335;BME280;27986;42.700;24.178;2022-09-27T02:08:05;92980.28;;;14.55;100.00
42335;BME280;27986;42.700;24.178;2022-09-27T02:10:36;93006.59;;;14.88;100.00
42335;BME280;27986;42.700;24.178;2022-09-27T02:19:12;92979.19;;;15.08;100.00
42335;BME280;27986;42.700;24.178;2022-09-27T02:22:03;92975.59;;;15.08;100.00
42335;BME280;27986;42.700;24.178;2022-09-27T02:29:59;92982.84;;;15.01;100.00
42335;BME280;27986;42.700;24.178;2022-09-27T02:32:26;92976.25;;;14.99;100.00
42335;BME280;27986;42.700;24.178;2022-09-27T02:34:52;92971.84;;;15.05;100.00
42335;BME280;27986;42.700;24.178;2022-09-27T02:37:19;92967.13;;;15.00;100.00
42335;BME280;27986;42.700;24.178;2022-09-27T02:39:44;92990.06;;;14.95;100.00
42335;BME280;27986;42.700;24.178;2022-09-27T02:42:10;92969.81;;;14.98;100.00
42335;BME280;27986;42.700;24.178;2022-09-27T02:44:36;92965.81;;;15.01;100.00
42335;BME280;27986;42.700;24.178;2022-09-27T02:47:15;92958.16;;;15.11;100.00
42335;BME280;27986;42.700;24.178;2022-09-27T02:58:38;92956.84;;;15.30;100.00
42335;BME280;27986;42.700;24.178;2022-09-27T03:01:16;92930.69;;;15.14;100.00
42335;BME280;27986;42.700;24.178;2022-09-27T03:03:51;92933.44;;;15.21;100.00
42335;BME280;27986;42.700;24.178;2022-09-27T03:06:19;92927.03;;;15.21;100.00
42335;BME280;27986;42.700;24.178;2022-09-27T03:08:47;92871.66;;;14.87;100.00
42335;BME280;27986;42.700;24.178;2022-09-27T03:11:12;92924.28;;;15.13;100.00
42335;BME280;27986;42.700;24.178;2022-09-27T03:13:38;92909.66;;;15.17;100.00
42335;BME280;27986;42.700;24.178;2022-09-27T03:16:05;92904.88;;;15.19;100.00
42335;BME280;27986;42.700;24.178;2022-09-27T03:18:31;92906.66;;;15.15;100.00
42335;BME280;27986;42.700;24.178;2022-09-27T03:20:57;92901.31;;;15.19;100.00
42335;BME280;27986;42.700;24.178;2022-09-27T03:23:23;92897.31;;;15.22;100.00
42335;BME280;27986;42.700;24.178;2022-09-27T03:25:48;92868.19;;;14.97;100.00
42335;BME280;27986;42.700;24.178;2022-09-27T03:28:14;92890.94;;;15.14;100.00
42335;BME280;27986;42.700;24.178;2022-09-27T03:30:40;92875.22;;;15.13;100.00
42335;BME280;27986;42.700;24.178;2022-09-27T03:33:07;92878.84;;;15.13;100.00
42335;BME280;27986;42.700;24.178;2022-09-27T03:35:36;92875.72;;;15.02;100.00
42335;BME280;27986;42.700;24.178;2022-09-27T03:38:02;92868.63;;;15.10;100.00
42335;BME280;27986;42.700;24.178;2022-09-27T03:40:28;92847.91;;;15.00;100.00
42335;BME280;27986;42.700;24.178;2022-09-27T03:42:54;92848.66;;;15.01;100.00
42335;BME280;27986;42.700;24.178;2022-09-27T03:45:20;92852.69;;;15.15;100.00
42335;BME280;27986;42.700;24.178;2022-09-27T03:47:45;92841.06;;;15.20;100.00
42335;BME280;27986;42.700;24.178;2022-09-27T03:50:12;92848.03;;;15.27;100.00
42335;BME280;27986;42.700;24.178;2022-09-27T03:52:39;92854.16;;;14.99;100.00
42335;BME280;27986;42.700;24.178;2022-09-27T03:55:05;92873.19;;;14.88;100.00
42335;BME280;27986;42.700;24.178;2022-09-27T03:57:30;92863.72;;;14.28;100.00
42335;BME280;27986;42.700;24.178;2022-09-27T03:59:57;92854.31;;;14.26;100.00
42335;BME280;27986;42.700;24.178;2022-09-27T04:02:24;92851.78;;;14.05;100.00
42335;BME280;27986;42.700;24.178;2022-09-27T04:04:50;92849.84;;;14.15;100.00
42335;BME280;27986;42.700;24.178;2022-09-27T04:07:15;92863.19;;;14.30;100.00
42335;BME280;27986;42.700;24.178;2022-09-27T04:09:42;92824.06;;;13.96;100.00
42335;BME280;27986;42.700;24.178;2022-09-27T04:12:09;92877.69;;;14.34;100.00
42335;BME280;27986;42.700;24.178;2022-09-27T04:14:34;92885.56;;;14.51;100.00
42335;BME280;27986;42.700;24.178;2022-09-27T04:17:00;92897.78;;;14.61;100.00
42335;BME280;27986;42.700;24.178;2022-09-27T04:19:26;92878.41;;;14.42;100.00
42335;BME280;27986;42.700;24.178;2022-09-27T04:21:51;92876.72;;;14.47;100.00
42335;BME280;27986;42.700;24.178;2022-09-27T04:24:17;92872.66;;;14.57;100.00
42335;BME280;27986;42.700;24.178;2022-09-27T04:26:42;92849.09;;;14.47;100.00
42335;BME280;27986;42.700;24.178;2022-09-27T04:29:08;92851.19;;;14.47;100.00
42335;BME280;27986;42.700;24.178;2022-09-27T04:31:34;92858.88;;;14.54;100.00
42335;BME280;27986;42.700;24.178;2022-09-27T04:34:01;92833.34;;;14.54;100.00
42335;BME280;27986;42.700;24.178;2022-09-27T04:36:27;92842.97;;;14.58;100.00
42335;BME280;27986;42.700;24.178;2022-09-27T04:38:54;92837.34;;;14.51;100.00
42335;BME280;27986;42.700;24.178;2022-09-27T04:41:20;92847.78;;;14.73;100.00
42335;BME280;27986;42.700;24.178;2022-09-27T04:43:47;92838.59;;;14.82;100.00
42335;BME280;27986;42.700;24.178;2022-09-27T04:46:12;92853.81;;;14.95;100.00
42335;BME280;27986;42.700;24.178;2022-09-27T04:48:38;92843.47;;;14.89;100.00
42335;BME280;27986;42.700;24.178;2022-09-27T04:51:04;92812.91;;;14.80;100.00
42335;BME280;27986;42.700;24.178;2022-09-27T04:53:30;92840.47;;;15.05;100.00
42335;BME280;27986;42.700;24.178;2022-09-27T04:55:56;92820.25;;;14.83;100.00
42335;BME280;27986;42.700;24.178;2022-09-27T04:58:22;92847.00;;;14.98;100.00
42335;BME280;27986;42.700;24.178;2022-09-27T05:00:48;92840.38;;;14.95;100.00
42335;BME280;27986;42.700;24.178;2022-09-27T05:03:17;92810.47;;;14.77;100.00
42335;BME280;27986;42.700;24.178;2022-09-27T05:05:44;92843.91;;;15.03;100.00
42335;BME280;27986;42.700;24.178;2022-09-27T05:08:09;92844.25;;;15.07;100.00
42335;BME280;27986;42.700;24.178;2022-09-27T05:10:35;92845.31;;;15.12;100.00
42335;BME280;27986;42.700;24.178;2022-09-27T05:13:01;92844.25;;;15.07;100.00
42335;BME280;27986;42.700;24.178;2022-09-27T05:15:26;92830.44;;;15.04;100.00
42335;BME280;27986;42.700;24.178;2022-09-27T05:17:53;92840.41;;;15.12;100.00
42335;BME280;27986;42.700;24.178;2022-09-27T05:20:19;92840.38;;;14.95;100.00
42335;BME280;27986;42.700;24.178;2022-09-27T05:22:45;92857.03;;;15.16;100.00
42335;BME280;27986;42.700;24.178;2022-09-27T05:25:11;92833.56;;;14.98;100.00
42335;BME280;27986;42.700;24.178;2022-09-27T05:27:37;92848.69;;;15.18;100.00
42335;BME280;27986;42.700;24.178;2022-09-27T05:30:03;92818.69;;;14.90;100.00
42335;BME280;27986;42.700;24.178;2022-09-27T05:32:32;92840.69;;;15.24;100.00
42335;BME280;27986;42.700;24.178;2022-09-27T05:34:59;92846.69;;;15.45;100.00
42335;BME280;27986;42.700;24.178;2022-09-27T05:37:25;92843.47;;;15.66;100.00
42335;BME280;27986;42.700;24.178;2022-09-27T05:39:50;92837.84;;;15.76;100.00
42335;BME280;27986;42.700;24.178;2022-09-27T05:42:16;92814.97;;;15.74;100.00
42335;BME280;27986;42.700;24.178;2022-09-27T05:44:43;92799.41;;;15.58;100.00
42335;BME280;27986;42.700;24.178;2022-09-27T05:47:12;92848.72;;;15.70;100.00
42335;BME280;27986;42.700;24.178;2022-09-27T05:49:37;92845.78;;;15.77;100.00
42335;BME280;27986;42.700;24.178;2022-09-27T05:52:05;92827.47;;;15.71;100.00
42335;BME280;27986;42.700;24.178;2022-09-27T05:54:30;92837.59;;;15.82;100.00
42335;BME280;27986;42.700;24.178;2022-09-27T05:56:56;92844.28;;;15.76;100.00
42335;BME280;27986;42.700;24.178;2022-09-27T05:59:26;92851.97;;;15.84;100.00
42335;BME280;27986;42.700;24.178;2022-09-27T06:02:00;92851.16;;;15.73;100.00
42335;BME280;27986;42.700;24.178;2022-09-27T06:04:26;92855.50;;;15.74;100.00
42335;BME280;27986;42.700;24.178;2022-09-27T06:06:51;92833.16;;;15.71;100.00
42335;BME280;27986;42.700;24.178;2022-09-27T06:09:17;92832.41;;;15.70;100.00
42335;BME280;27986;42.700;24.178;2022-09-27T06:11:42;92820.72;;;15.32;100.00
42335;BME280;27986;42.700;24.178;2022-09-27T06:14:10;92827.41;;;15.27;100.00
42335;BME280;27986;42.700;24.178;2022-09-27T06:16:35;92823.97;;;15.28;100.00
42335;BME280;27986;42.700;24.178;2022-09-27T06:19:01;92831.16;;;15.46;100.00
42335;BME280;27986;42.700;24.178;2022-09-27T06:21:28;92837.34;;;15.53;100.00
42335;BME280;27986;42.700;24.178;2022-09-27T06:23:55;92828.50;;;15.66;100.00
42335;BME280;27986;42.700;24.178;2022-09-27T06:26:21;92793.56;;;15.73;100.00
42335;BME280;27986;42.700;24.178;2022-09-27T06:28:47;92814.50;;;15.95;100.00
42335;BME280;27986;42.700;24.178;2022-09-27T06:31:15;92809.34;;;15.84;100.00
42335;BME280;27986;42.700;24.178;2022-09-27T06:33:40;92809.56;;;15.95;100.00
42335;BME280;27986;42.700;24.178;2022-09-27T06:36:07;92830.34;;;16.15;100.00
42335;BME280;27986;42.700;24.178;2022-09-27T06:38:34;92822.22;;;15.67;100.00
42335;BME280;27986;42.700;24.178;2022-09-27T06:41:01;92818.13;;;15.61;100.00
42335;BME280;27986;42.700;24.178;2022-09-27T06:43:27;92794.47;;;15.75;100.00
42335;BME280;27986;42.700;24.178;2022-09-27T06:45:53;92782.66;;;15.79;100.00
42335;BME280;27986;42.700;24.178;2022-09-27T06:48:19;92805.00;;;16.10;100.00
42335;BME280;27986;42.700;24.178;2022-09-27T06:50:45;92810.75;;;16.19;100.00
42335;BME280;27986;42.700;24.178;2022-09-27T06:53:13;92824.28;;;16.28;100.00
42335;BME280;27986;42.700;24.178;2022-09-27T06:55:39;92810.09;;;16.11;100.00
42335;BME280;27986;42.700;24.178;2022-09-27T06:58:05;92833.88;;;16.06;100.00
42335;BME280;27986;42.700;24.178;2022-09-27T07:00:50;92803.16;;;15.77;100.00
42335;BME280;27986;42.700;24.178;2022-09-27T07:03:18;92829.56;;;15.88;100.00
42335;BME280;27986;42.700;24.178;2022-09-27T07:05:54;92837.22;;;15.95;100.00
42335;BME280;27986;42.700;24.178;2022-09-27T07:08:20;92794.72;;;15.70;100.00
42335;BME280;27986;42.700;24.178;2022-09-27T07:10:45;92833.09;;;16.05;100.00
42335;BME280;27986;42.700;24.178;2022-09-27T07:13:11;92838.78;;;16.05;100.00
42335;BME280;27986;42.700;24.178;2022-09-27T07:15:39;92853.78;;;16.06;100.00
42335;BME280;27986;42.700;24.178;2022-09-27T07:18:06;92837.22;;;15.95;100.00
42335;BME280;27986;42.700;24.178;2022-09-27T07:20:32;92865.38;;;16.18;100.00
42335;BME280;27986;42.700;24.178;2022-09-27T07:23:01;92840.56;;;16.01;100.00
42335;BME280;27986;42.700;24.178;2022-09-27T07:25:27;92860.94;;;16.24;100.00
42335;BME280;27986;42.700;24.178;2022-09-27T07:27:53;92864.84;;;16.29;100.00
42335;BME280;27986;42.700;24.178;2022-09-27T07:30:19;92875.72;;;16.40;100.00
42335;BME280;27986;42.700;24.178;2022-09-27T07:32:45;92836.25;;;16.27;100.00
42335;BME280;27986;42.700;24.178;2022-09-27T07:35:11;92818.28;;;16.24;100.00
42335;BME280;27986;42.700;24.178;2022-09-27T07:37:39;92864.78;;;16.46;100.00
42335;BME280;27986;42.700;24.178;2022-09-27T07:40:07;92864.19;;;16.48;100.00
42335;BME280;27986;42.700;24.178;2022-09-27T07:42:36;92867.81;;;16.48;100.00
42335;BME280;27986;42.700;24.178;2022-09-27T07:45:06;92862.81;;;16.39;100.00
42335;BME280;27986;42.700;24.178;2022-09-27T07:47:32;92850.66;;;16.12;100.00
42335;BME280;27986;42.700;24.178;2022-09-27T07:49:58;92864.41;;;15.88;100.00
42335;BME280;27986;42.700;24.178;2022-09-27T07:52:23;92869.94;;;15.86;100.00
42335;BME280;27986;42.700;24.178;2022-09-27T07:54:49;92847.53;;;15.90;100.00
42335;BME280;27986;42.700;24.178;2022-09-27T07:57:16;92872.41;;;16.17;100.00
42335;BME280;27986;42.700;24.178;2022-09-27T07:59:45;92870.88;;;16.33;100.00
42335;BME280;27986;42.700;24.178;2022-09-27T08:02:15;92829.38;;;16.30;100.00
42335;BME280;27986;42.700;24.178;2022-09-27T08:04:41;92836.03;;;16.69;100.00
42335;BME280;27986;42.700;24.178;2022-09-27T08:07:08;92842.88;;;17.03;100.00
42335;BME280;27986;42.700;24.178;2022-09-27T08:09:34;92808.84;;;17.05;100.00
42335;BME280;27986;42.700;24.178;2022-09-27T08:12:00;92844.47;;;17.33;100.00
42335;BME280;27986;42.700;24.178;2022-09-27T08:14:25;92814.16;;;17.28;100.00
42335;BME280;27986;42.700;24.178;2022-09-27T08:16:51;92822.88;;;17.59;100.00
42335;BME280;27986;42.700;24.178;2022-09-27T08:19:16;92819.16;;;17.85;100.00
42335;BME280;27986;42.700;24.178;2022-09-27T08:21:42;92825.97;;;18.40;100.00
42335;BME280;27986;42.700;24.178;2022-09-27T08:24:08;92804.38;;;18.27;98.46
42335;BME280;27986;42.700;24.178;2022-09-27T08:26:33;92810.47;;;18.53;91.01
42335;BME280;27986;42.700;24.178;2022-09-27T08:28:59;92841.75;;;18.92;92.88
42335;BME280;27986;42.700;24.178;2022-09-27T08:31:24;92829.91;;;18.86;89.88
42335;BME280;27986;42.700;24.178;2022-09-27T08:33:50;92834.09;;;18.94;92.62
42335;BME280;27986;42.700;24.178;2022-09-27T08:36:17;92816.41;;;19.07;94.79
42335;BME280;27986;42.700;24.178;2022-09-27T08:38:48;92820.44;;;19.14;99.49
42335;BME280;27986;42.700;24.178;2022-09-27T08:41:34;92836.91;;;19.04;100.00
42335;BME280;27986;42.700;24.178;2022-09-27T08:47:23;92801.88;;;19.03;100.00
42335;BME280;27986;42.700;24.178;2022-09-27T08:50:02;92827.13;;;19.28;100.00
42335;BME280;27986;42.700;24.178;2022-09-27T08:52:36;92813.19;;;19.44;100.00
42335;BME280;27986;42.700;24.178;2022-09-27T08:57:57;92803.25;;;19.24;97.93
42335;BME280;27986;42.700;24.178;2022-09-27T09:00:23;92779.34;;;19.40;97.77
42335;BME280;27986;42.700;24.178;2022-09-27T09:02:49;92771.22;;;19.68;98.61
42335;BME280;27986;42.700;24.178;2022-09-27T09:05:32;92756.63;;;19.64;95.84
42335;BME280;27986;42.700;24.178;2022-09-27T09:10:57;92753.34;;;19.79;91.17
42335;BME280;27986;42.700;24.178;2022-09-27T09:14:18;92762.88;;;19.93;92.20
42335;BME280;27986;42.700;24.178;2022-09-27T09:17:03;92757.97;;;19.84;89.04
42335;BME280;27986;42.700;24.178;2022-09-27T09:19:59;92763.47;;;19.92;84.06
42335;BME280;27986;42.700;24.178;2022-09-27T09:28:15;92756.16;;;20.01;81.79
42335;BME280;27986;42.700;24.178;2022-09-27T09:33:31;92736.22;;;19.91;78.36
42335;BME280;27986;42.700;24.178;2022-09-27T09:38:46;92747.97;;;20.07;79.11
42335;BME280;27986;42.700;24.178;2022-09-27T09:46:45;92753.31;;;20.57;78.88
42335;BME280;27986;42.700;24.178;2022-09-27T09:49:23;92766.28;;;20.93;76.81
42335;BME280;27986;42.700;24.178;2022-09-27T09:51:53;92762.78;;;20.83;72.83
42335;BME280;27986;42.700;24.178;2022-09-27T09:56:57;92754.34;;;20.85;72.03
42335;BME280;27986;42.700;24.178;2022-09-27T09:59:28;92775.75;;;20.96;70.38
42335;BME280;27986;42.700;24.178;2022-09-27T10:01:57;92748.47;;;21.06;72.04
42335;BME280;27986;42.700;24.178;2022-09-27T10:04:27;92769.28;;;21.30;71.82
42335;BME280;27986;42.700;24.178;2022-09-27T10:06:54;92736.38;;;21.20;68.34
42335;BME280;27986;42.700;24.178;2022-09-27T10:09:24;92747.78;;;21.55;65.97
42335;BME280;27986;42.700;24.178;2022-09-27T10:11:50;92737.69;;;21.42;67.40
42335;BME280;27986;42.700;24.178;2022-09-27T10:14:19;92693.69;;;21.26;69.65
42335;BME280;27986;42.700;24.178;2022-09-27T10:16:53;92739.78;;;21.90;68.85
42335;BME280;27986;42.700;24.178;2022-09-27T10:19:29;92734.03;;;21.65;65.11
42335;BME280;27986;42.700;24.178;2022-09-27T10:22:01;92723.84;;;21.50;64.60
42335;BME280;27986;42.700;24.178;2022-09-27T10:24:27;92711.59;;;21.61;65.36
42335;BME280;27986;42.700;24.178;2022-09-27T10:26:57;92728.59;;;21.46;65.92
42335;BME280;27986;42.700;24.178;2022-09-27T10:29:24;92733.38;;;21.67;68.05
42335;BME280;27986;42.700;24.178;2022-09-27T10:31:53;92697.25;;;21.61;69.08
42335;BME280;27986;42.700;24.178;2022-09-27T10:34:34;92698.47;;;21.70;66.35
42335;BME280;27986;42.700;24.178;2022-09-27T10:39:36;92716.31;;;22.45;65.28
42335;BME280;27986;42.700;24.178;2022-09-27T10:44:48;92701.94;;;22.45;62.17
42335;BME280;27986;42.700;24.178;2022-09-27T10:47:17;92703.34;;;22.58;61.80
42335;BME280;27986;42.700;24.178;2022-09-27T10:49:48;92696.59;;;22.39;61.96
42335;BME280;27986;42.700;24.178;2022-09-27T10:52:20;92703.94;;;22.29;62.71
42335;BME280;27986;42.700;24.178;2022-09-27T10:55:19;92702.94;;;21.99;63.34
42335;BME280;27986;42.700;24.178;2022-09-27T10:57:40;92690.25;;;22.15;64.79
42335;BME280;27986;42.700;24.178;2022-09-27T11:00:18;92704.81;;;22.45;64.90
42335;BME280;27986;42.700;24.178;2022-09-27T11:02:50;92676.03;;;22.70;62.23
42335;BME280;27986;42.700;24.178;2022-09-27T11:07:56;92674.22;;;22.24;60.88
42335;BME280;27986;42.700;24.178;2022-09-27T11:10:28;92717.34;;;21.87;64.70
42335;BME280;27986;42.700;24.178;2022-09-27T11:13:18;92716.28;;;21.69;67.70
42335;BME280;27986;42.700;24.178;2022-09-27T11:18:28;92704.94;;;21.33;69.38
42335;BME280;27986;42.700;24.178;2022-09-27T11:20:58;92707.16;;;21.47;69.97
42335;BME280;27986;42.700;24.178;2022-09-27T11:26:09;92694.00;;;21.06;72.34
42335;BME280;27986;42.700;24.178;2022-09-27T11:31:39;92701.88;;;20.94;74.61
42335;BME280;27986;42.700;24.178;2022-09-27T11:37:13;92690.75;;;21.00;74.77
42335;BME280;27986;42.700;24.178;2022-09-27T11:53:57;92666.88;;;21.45;73.25
42335;BME280;27986;42.700;24.178;2022-09-27T12:10:13;92631.53;;;22.99;63.25
42335;BME280;27986;42.700;24.178;2022-09-27T12:12:43;92643.13;;;22.73;62.57
42335;BME280;27986;42.700;24.178;2022-09-27T12:15:23;92642.03;;;22.39;64.48
42335;BME280;27986;42.700;24.178;2022-09-27T12:18:16;92648.53;;;22.67;65.39
42335;BME280;27986;42.700;24.178;2022-09-27T12:20:46;92638.88;;;22.74;62.06
42335;BME280;27986;42.700;24.178;2022-09-27T12:23:16;92658.66;;;22.82;62.93
42335;BME280;27986;42.700;24.178;2022-09-27T12:25:48;92639.41;;;22.71;61.63
42335;BME280;27986;42.700;24.178;2022-09-27T12:31:03;92655.41;;;22.88;61.32
42335;BME280;27986;42.700;24.178;2022-09-27T12:33:41;92651.53;;;22.69;62.61
42335;BME280;27986;42.700;24.178;2022-09-27T12:36:14;92632.28;;;22.72;62.14
42335;BME280;27986;42.700;24.178;2022-09-27T12:41:27;92633.41;;;22.53;62.74
42335;BME280;27986;42.700;24.178;2022-09-27T12:43:58;92614.16;;;22.42;62.41
42335;BME280;27986;42.700;24.178;2022-09-27T12:51:55;92584.81;;;22.98;61.30
42335;BME280;27986;42.700;24.178;2022-09-27T12:54:51;92591.03;;;23.52;58.93
42335;BME280;27986;42.700;24.178;2022-09-27T13:00:10;92600.31;;;23.21;58.73
42335;BME280;27986;42.700;24.178;2022-09-27T13:13:40;92551.31;;;23.19;58.32
42335;BME280;27986;42.700;24.178;2022-09-27T13:16:07;92550.53;;;22.89;59.16
42335;BME280;27986;42.700;24.178;2022-09-27T13:18:50;92583.09;;;22.93;60.42
42335;BME280;27986;42.700;24.178;2022-09-27T13:24:38;92574.13;;;23.01;60.24
42335;BME280;27986;42.700;24.178;2022-09-27T13:32:38;92562.88;;;22.91;62.03
42335;BME280;27986;42.700;24.178;2022-09-27T13:35:23;92568.19;;;22.97;62.00
42335;BME280;27986;42.700;24.178;2022-09-27T13:37:53;92584.78;;;23.12;61.88
42335;BME280;27986;42.700;24.178;2022-09-27T13:40:27;92586.16;;;23.11;62.48
42335;BME280;27986;42.700;24.178;2022-09-27T13:48:49;92552.50;;;23.43;60.90
42335;BME280;27986;42.700;24.178;2022-09-27T13:57:00;92553.47;;;24.09;59.45
42335;BME280;27986;42.700;24.178;2022-09-27T13:59:38;92545.19;;;23.85;58.86
42335;BME280;27986;42.700;24.178;2022-09-27T14:04:40;92553.84;;;23.56;62.22
42335;BME280;27986;42.700;24.178;2022-09-27T14:07:13;92550.56;;;23.48;62.58
42335;BME280;27986;42.700;24.178;2022-09-27T14:09:40;92547.28;;;23.69;63.33
42335;BME280;27986;42.700;24.178;2022-09-27T14:12:11;92527.16;;;23.40;61.98
42335;BME280;27986;42.700;24.178;2022-09-27T14:14:37;92543.47;;;23.35;60.99
42335;BME280;27986;42.700;24.178;2022-09-27T14:17:06;92540.19;;;23.27;59.88
42335;BME280;27986;42.700;24.178;2022-09-27T14:19:32;92539.22;;;22.93;59.25
42335;BME280;27986;42.700;24.178;2022-09-27T14:21:58;92482.78;;;22.56;59.41
42335;BME280;27986;42.700;24.178;2022-09-27T14:27:15;92525.53;;;22.50;60.67
42335;BME280;27986;42.700;24.178;2022-09-27T14:29:47;92526.59;;;22.43;61.58
42335;BME280;27986;42.700;24.178;2022-09-27T14:32:19;92539.91;;;22.23;63.01
42335;BME280;27986;42.700;24.178;2022-09-27T14:34:45;92529.50;;;22.15;66.21
42335;BME280;27986;42.700;24.178;2022-09-27T14:37:23;92532.91;;;21.73;71.17
42335;BME280;27986;42.700;24.178;2022-09-27T14:39:59;92556.25;;;21.67;73.77
42335;BME280;27986;42.700;24.178;2022-09-27T14:42:28;92555.41;;;21.64;74.08
42335;BME280;27986;42.700;24.178;2022-09-27T14:45:00;92534.06;;;21.68;73.38
42335;BME280;27986;42.700;24.178;2022-09-27T14:47:26;92547.91;;;21.85;72.44
42335;BME280;27986;42.700;24.178;2022-09-27T14:49:53;92557.94;;;21.98;71.91
42335;BME280;27986;42.700;24.178;2022-09-27T14:52:30;92557.94;;;21.98;72.02
42335;BME280;27986;42.700;24.178;2022-09-27T14:55:15;92549.63;;;21.90;73.13
42335;BME280;27986;42.700;24.178;2022-09-27T14:57:48;92568.88;;;22.01;73.84
42335;BME280;27986;42.700;24.178;2022-09-27T15:00:31;92567.94;;;21.97;74.27
42335;BME280;27986;42.700;24.178;2022-09-27T15:03:01;92556.00;;;21.88;74.70
42335;BME280;27986;42.700;24.178;2022-09-27T15:05:32;92571.75;;;21.87;75.59
42335;BME280;27986;42.700;24.178;2022-09-27T15:08:02;92577.06;;;21.93;75.61
42335;BME280;27986;42.700;24.178;2022-09-27T15:10:32;92577.59;;;21.89;75.43
42335;BME280;27986;42.700;24.178;2022-09-27T15:12:59;92561.59;;;21.73;76.36
42335;BME280;27986;42.700;24.178;2022-09-27T15:15:29;92569.41;;;21.58;78.28
42335;BME280;27986;42.700;24.178;2022-09-27T15:17:57;92549.31;;;21.07;80.70
42335;BME280;27986;42.700;24.178;2022-09-27T15:20:25;92577.81;;;21.17;81.88
42335;BME280;27986;42.700;24.178;2022-09-27T15:22:53;92563.25;;;20.76;82.68
42335;BME280;27986;42.700;24.178;2022-09-27T15:27:53;92578.47;;;20.78;84.20
42335;BME280;27986;42.700;24.178;2022-09-27T15:31:09;92567.28;;;20.59;85.58
42335;BME280;27986;42.700;24.178;2022-09-27T15:33:21;92565.03;;;20.34;88.09
42335;BME280;27986;42.700;24.178;2022-09-27T15:35:50;92558.22;;;20.16;89.88
42335;BME280;27986;42.700;24.178;2022-09-27T15:38:24;92558.00;;;20.12;89.82
42335;BME280;27986;42.700;24.178;2022-09-27T15:43:39;92554.25;;;20.21;91.47
42335;BME280;27986;42.700;24.178;2022-09-27T15:51:54;92538.06;;;20.25;94.77
42335;BME280;27986;42.700;24.178;2022-09-27T15:54:21;92557.59;;;20.29;94.54
42335;BME280;27986;42.700;24.178;2022-09-27T15:56:48;92556.84;;;20.29;95.02
42335;BME280;27986;42.700;24.178;2022-09-27T15:59:26;92568.78;;;20.25;95.31
42335;BME280;27986;42.700;24.178;2022-09-27T16:01:57;92531.47;;;20.00;96.32